sensor_id;sensor_type;location;lat;lon;timestamp;P1;durP1;ratioP1;P2;durP2;ratioP2
54517;SDS011;40423;53.176;6.002;2023-02-04T00:01:09;51.33;;;9.27;;
54517;SDS011;40423;53.176;6.002;2023-02-04T00:03:35;64.80;;;10.55;;
54517;SDS011;40423;53.176;6.002;2023-02-04T00:06:00;53.78;;;8.77;;
54517;SDS011;40423;53.176;6.002;2023-02-04T00:08:26;50.20;;;8.13;;
54517;SDS011;40423;53.176;6.002;2023-02-04T00:10:54;54.08;;;8.20;;
54517;SDS011;40423;53.176;6.002;2023-02-04T00:13:20;52.63;;;10.30;;
54517;SDS011;40423;53.176;6.002;2023-02-04T00:15:46;49.25;;;9.35;;
54517;SDS011;40423;53.176;6.002;2023-02-04T00:18:11;49.42;;;8.45;;
54517;SDS011;40423;53.176;6.002;2023-02-04T00:20:37;47.47;;;11.07;;
54517;SDS011;40423;53.176;6.002;2023-02-04T00:23:03;48.88;;;7.90;;
54517;SDS011;40423;53.176;6.002;2023-02-04T00:25:31;44.58;;;9.98;;
54517;SDS011;40423;53.176;6.002;2023-02-04T00:27:57;49.55;;;7.68;;
54517;SDS011;40423;53.176;6.002;2023-02-04T00:30:22;53.30;;;7.45;;
54517;SDS011;40423;53.176;6.002;2023-02-04T00:32:48;49.78;;;8.90;;
54517;SDS011;40423;53.176;6.002;2023-02-04T00:35:18;48.97;;;9.48;;
54517;SDS011;40423;53.176;6.002;2023-02-04T00:37:45;46.63;;;9.32;;
54517;SDS011;40423;53.176;6.002;2023-02-04T00:40:11;48.95;;;9.65;;
54517;SDS011;40423;53.176;6.002;2023-02-04T00:42:37;41.72;;;7.75;;
54517;SDS011;40423;53.176;6.002;2023-02-04T00:45:05;58.70;;;10.93;;
54517;SDS011;40423;53.176;6.002;2023-02-04T00:47:32;52.28;;;8.45;;
54517;SDS011;40423;53.176;6.002;2023-02-04T00:49:57;60.53;;;8.05;;
54517;SDS011;40423;53.176;6.002;2023-02-04T00:52:23;49.22;;;8.23;;
54517;SDS011;40423;53.176;6.002;2023-02-04T00:54:51;40.78;;;8.05;;
54517;SDS011;40423;53.176;6.002;2023-02-04T00:57:17;55.83;;;9.15;;
54517;SDS011;40423;53.176;6.002;2023-02-04T00:59:43;49.95;;;7.78;;
54517;SDS011;40423;53.176;6.002;2023-02-04T01:02:09;45.60;;;7.65;;
54517;SDS011;40423;53.176;6.002;2023-02-04T01:04:35;47.55;;;8.30;;
54517;SDS011;40423;53.176;6.002;2023-02-04T01:07:01;37.38;;;6.90;;
54517;SDS011;40423;53.176;6.002;2023-02-04T01:09:26;56.63;;;9.63;;
54517;SDS011;40423;53.176;6.002;2023-02-04T01:11:52;50.47;;;6.90;;
54517;SDS011;40423;53.176;6.002;2023-02-04T01:14:18;52.65;;;7.90;;
54517;SDS011;40423;53.176;6.002;2023-02-04T01:16:43;43.90;;;7.20;;
54517;SDS011;40423;53.176;6.002;2023-02-04T01:19:09;49.33;;;8.52;;
54517;SDS011;40423;53.176;6.002;2023-02-04T01:21:35;44.95;;;10.20;;
54517;SDS011;40423;53.176;6.002;2023-02-04T01:24:04;47.65;;;7.47;;
54517;SDS011;40423;53.176;6.002;2023-02-04T01:26:30;49.15;;;6.97;;
54517;SDS011;40423;53.176;6.002;2023-02-04T01:28:56;58.53;;;8.70;;
54517;SDS011;40423;53.176;6.002;2023-02-04T01:31:24;47.00;;;7.38;;
54517;SDS011;40423;53.176;6.002;2023-02-04T01:33:50;47.17;;;7.72;;
54517;SDS011;40423;53.176;6.002;2023-02-04T01:36:19;45.13;;;9.32;;
54517;SDS011;40423;53.176;6.002;2023-02-04T01:38:46;41.80;;;7.30;;
54517;SDS011;40423;53.176;6.002;2023-02-04T01:41:15;63.75;;;10.43;;
54517;SDS011;40423;53.176;6.002;2023-02-04T01:43:41;44.85;;;6.85;;
54517;SDS011;40423;53.176;6.002;2023-02-04T01:46:10;45.15;;;7.60;;
54517;SDS011;40423;53.176;6.002;2023-02-04T01:48:36;53.88;;;7.80;;
54517;SDS011;40423;53.176;6.002;2023-02-04T01:51:03;49.55;;;7.60;;
54517;SDS011;40423;53.176;6.002;2023-02-04T01:53:31;46.63;;;7.72;;
54517;SDS011;40423;53.176;6.002;2023-02-04T01:55:58;42.92;;;7.55;;
54517;SDS011;40423;53.176;6.002;2023-02-04T01:58:24;41.33;;;8.15;;
54517;SDS011;40423;53.176;6.002;2023-02-04T02:00:50;40.10;;;8.60;;
54517;SDS011;40423;53.176;6.002;2023-02-04T02:03:15;42.75;;;9.25;;
54517;SDS011;40423;53.176;6.002;2023-02-04T02:08:12;43.55;;;6.93;;
54517;SDS011;40423;53.176;6.002;2023-02-04T02:10:40;47.00;;;8.32;;
54517;SDS011;40423;53.176;6.002;2023-02-04T02:13:09;44.40;;;7.22;;
54517;SDS011;40423;53.176;6.002;2023-02-04T02:15:37;39.42;;;7.05;;
54517;SDS011;40423;53.176;6.002;2023-02-04T02:18:06;46.28;;;7.32;;
54517;SDS011;40423;53.176;6.002;2023-02-04T02:20:33;38.35;;;7.07;;
54517;SDS011;40423;53.176;6.002;2023-02-04T02:23:10;55.85;;;7.65;;
54517;SDS011;40423;53.176;6.002;2023-02-04T02:25:38;47.40;;;10.50;;
54517;SDS011;40423;53.176;6.002;2023-02-04T02:28:12;58.35;;;8.63;;
54517;SDS011;40423;53.176;6.002;2023-02-04T02:30:40;41.22;;;7.15;;
54517;SDS011;40423;53.176;6.002;2023-02-04T02:33:09;40.55;;;7.13;;
54517;SDS011;40423;53.176;6.002;2023-02-04T02:35:41;39.50;;;6.72;;
54517;SDS011;40423;53.176;6.002;2023-02-04T02:38:11;48.05;;;8.32;;
54517;SDS011;40423;53.176;6.002;2023-02-04T02:40:37;56.35;;;9.15;;
54517;SDS011;40423;53.176;6.002;2023-02-04T02:43:04;43.83;;;7.07;;
54517;SDS011;40423;53.176;6.002;2023-02-04T02:45:31;52.80;;;8.32;;
54517;SDS011;40423;53.176;6.002;2023-02-04T02:47:58;50.20;;;8.10;;
54517;SDS011;40423;53.176;6.002;2023-02-04T02:50:28;44.15;;;8.20;;
54517;SDS011;40423;53.176;6.002;2023-02-04T02:52:55;53.72;;;8.20;;
54517;SDS011;40423;53.176;6.002;2023-02-04T02:55:23;44.85;;;7.25;;
54517;SDS011;40423;53.176;6.002;2023-02-04T02:57:50;51.58;;;7.03;;
54517;SDS011;40423;53.176;6.002;2023-02-04T03:00:19;50.13;;;9.13;;
54517;SDS011;40423;53.176;6.002;2023-02-04T03:02:59;39.85;;;6.50;;
54517;SDS011;40423;53.176;6.002;2023-02-04T03:05:27;47.85;;;7.53;;
54517;SDS011;40423;53.176;6.002;2023-02-04T03:07:57;39.25;;;6.95;;
54517;SDS011;40423;53.176;6.002;2023-02-04T03:10:23;51.78;;;7.95;;
54517;SDS011;40423;53.176;6.002;2023-02-04T03:12:49;46.67;;;6.97;;
54517;SDS011;40423;53.176;6.002;2023-02-04T03:15:15;51.75;;;9.38;;
54517;SDS011;40423;53.176;6.002;2023-02-04T03:17:41;40.05;;;7.80;;
54517;SDS011;40423;53.176;6.002;2023-02-04T03:20:08;42.67;;;6.72;;
54517;SDS011;40423;53.176;6.002;2023-02-04T03:22:34;45.15;;;7.40;;
54517;SDS011;40423;53.176;6.002;2023-02-04T03:25:00;58.30;;;8.45;;
54517;SDS011;40423;53.176;6.002;2023-02-04T03:27:26;42.50;;;8.80;;
54517;SDS011;40423;53.176;6.002;2023-02-04T03:29:52;44.72;;;6.50;;
54517;SDS011;40423;53.176;6.002;2023-02-04T03:32:18;54.60;;;8.82;;
54517;SDS011;40423;53.176;6.002;2023-02-04T03:34:44;51.63;;;8.10;;
54517;SDS011;40423;53.176;6.002;2023-02-04T03:37:09;49.22;;;8.10;;
54517;SDS011;40423;53.176;6.002;2023-02-04T03:39:35;52.88;;;8.57;;
54517;SDS011;40423;53.176;6.002;2023-02-04T03:42:01;44.13;;;7.65;;
54517;SDS011;40423;53.176;6.002;2023-02-04T03:44:27;51.50;;;7.65;;
54517;SDS011;40423;53.176;6.002;2023-02-04T03:46:53;52.63;;;7.55;;
54517;SDS011;40423;53.176;6.002;2023-02-04T03:49:22;56.50;;;8.40;;
54517;SDS011;40423;53.176;6.002;2023-02-04T03:51:51;54.35;;;8.05;;
54517;SDS011;40423;53.176;6.002;2023-02-04T03:54:17;56.15;;;8.63;;
54517;SDS011;40423;53.176;6.002;2023-02-04T03:56:43;43.25;;;6.75;;
54517;SDS011;40423;53.176;6.002;2023-02-04T03:59:08;49.38;;;8.25;;
54517;SDS011;40423;53.176;6.002;2023-02-04T04:01:37;50.55;;;8.85;;
54517;SDS011;40423;53.176;6.002;2023-02-04T04:04:03;43.58;;;8.10;;
54517;SDS011;40423;53.176;6.002;2023-02-04T04:06:28;63.47;;;8.65;;
54517;SDS011;40423;53.176;6.002;2023-02-04T04:08:56;39.92;;;7.20;;
54517;SDS011;40423;53.176;6.002;2023-02-04T04:11:21;52.22;;;7.65;;
54517;SDS011;40423;53.176;6.002;2023-02-04T04:13:50;39.22;;;7.07;;
54517;SDS011;40423;53.176;6.002;2023-02-04T04:16:16;57.22;;;8.82;;
54517;SDS011;40423;53.176;6.002;2023-02-04T04:18:41;46.25;;;8.45;;
54517;SDS011;40423;53.176;6.002;2023-02-04T04:21:07;51.38;;;7.53;;
54517;SDS011;40423;53.176;6.002;2023-02-04T04:23:33;54.53;;;8.18;;
54517;SDS011;40423;53.176;6.002;2023-02-04T04:25:59;53.92;;;7.97;;
54517;SDS011;40423;53.176;6.002;2023-02-04T04:28:24;44.88;;;8.52;;
54517;SDS011;40423;53.176;6.002;2023-02-04T04:30:53;53.40;;;11.38;;
54517;SDS011;40423;53.176;6.002;2023-02-04T04:33:18;47.28;;;8.50;;
54517;SDS011;40423;53.176;6.002;2023-02-04T04:35:44;63.33;;;8.48;;
54517;SDS011;40423;53.176;6.002;2023-02-04T04:38:10;50.67;;;8.70;;
54517;SDS011;40423;53.176;6.002;2023-02-04T04:40:35;58.15;;;8.98;;
54517;SDS011;40423;53.176;6.002;2023-02-04T04:43:01;57.53;;;8.15;;
54517;SDS011;40423;53.176;6.002;2023-02-04T04:45:27;66.50;;;10.45;;
54517;SDS011;40423;53.176;6.002;2023-02-04T04:47:53;50.35;;;8.13;;
54517;SDS011;40423;53.176;6.002;2023-02-04T04:50:19;45.42;;;9.02;;
54517;SDS011;40423;53.176;6.002;2023-02-04T04:52:44;52.83;;;7.38;;
54517;SDS011;40423;53.176;6.002;2023-02-04T04:55:10;58.45;;;8.95;;
54517;SDS011;40423;53.176;6.002;2023-02-04T04:57:36;50.15;;;9.48;;
54517;SDS011;40423;53.176;6.002;2023-02-04T05:00:02;58.28;;;9.43;;
54517;SDS011;40423;53.176;6.002;2023-02-04T05:02:29;47.10;;;7.65;;
54517;SDS011;40423;53.176;6.002;2023-02-04T05:04:55;64.68;;;9.25;;
54517;SDS011;40423;53.176;6.002;2023-02-04T05:07:20;46.17;;;8.65;;
54517;SDS011;40423;53.176;6.002;2023-02-04T05:09:46;67.55;;;9.05;;
54517;SDS011;40423;53.176;6.002;2023-02-04T05:12:12;59.13;;;9.45;;
54517;SDS011;40423;53.176;6.002;2023-02-04T05:14:38;51.15;;;8.07;;
54517;SDS011;40423;53.176;6.002;2023-02-04T05:17:03;45.17;;;8.07;;
54517;SDS011;40423;53.176;6.002;2023-02-04T05:19:32;59.67;;;8.25;;
54517;SDS011;40423;53.176;6.002;2023-02-04T05:21:58;42.28;;;7.78;;
54517;SDS011;40423;53.176;6.002;2023-02-04T05:24:25;45.45;;;7.53;;
54517;SDS011;40423;53.176;6.002;2023-02-04T05:26:51;58.60;;;8.80;;
54517;SDS011;40423;53.176;6.002;2023-02-04T05:29:17;59.25;;;9.23;;
54517;SDS011;40423;53.176;6.002;2023-02-04T05:31:46;42.88;;;8.05;;
54517;SDS011;40423;53.176;6.002;2023-02-04T05:34:12;34.33;;;6.97;;
54517;SDS011;40423;53.176;6.002;2023-02-04T05:36:37;47.10;;;7.63;;
54517;SDS011;40423;53.176;6.002;2023-02-04T05:39:03;44.30;;;7.97;;
54517;SDS011;40423;53.176;6.002;2023-02-04T05:41:29;46.72;;;7.95;;
54517;SDS011;40423;53.176;6.002;2023-02-04T05:43:55;62.08;;;9.30;;
54517;SDS011;40423;53.176;6.002;2023-02-04T05:46:20;46.42;;;7.28;;
54517;SDS011;40423;53.176;6.002;2023-02-04T05:48:46;42.90;;;7.35;;
54517;SDS011;40423;53.176;6.002;2023-02-04T05:51:11;42.30;;;9.23;;
54517;SDS011;40423;53.176;6.002;2023-02-04T05:53:40;49.60;;;8.75;;
54517;SDS011;40423;53.176;6.002;2023-02-04T05:56:06;48.00;;;8.80;;
54517;SDS011;40423;53.176;6.002;2023-02-04T05:58:31;36.60;;;7.18;;
54517;SDS011;40423;53.176;6.002;2023-02-04T06:00:58;52.30;;;7.35;;
54517;SDS011;40423;53.176;6.002;2023-02-04T06:03:25;46.00;;;7.72;;
54517;SDS011;40423;53.176;6.002;2023-02-04T06:05:52;41.33;;;8.00;;
54517;SDS011;40423;53.176;6.002;2023-02-04T06:08:17;41.17;;;7.00;;
54517;SDS011;40423;53.176;6.002;2023-02-04T06:10:43;60.78;;;8.02;;
54517;SDS011;40423;53.176;6.002;2023-02-04T06:13:09;49.65;;;8.27;;
54517;SDS011;40423;53.176;6.002;2023-02-04T06:15:35;53.40;;;11.25;;
54517;SDS011;40423;53.176;6.002;2023-02-04T06:18:04;43.30;;;7.20;;
54517;SDS011;40423;53.176;6.002;2023-02-04T06:20:29;52.78;;;8.70;;
54517;SDS011;40423;53.176;6.002;2023-02-04T06:22:55;49.30;;;7.38;;
54517;SDS011;40423;53.176;6.002;2023-02-04T06:25:21;34.38;;;5.60;;
54517;SDS011;40423;53.176;6.002;2023-02-04T06:27:47;43.13;;;6.68;;
54517;SDS011;40423;53.176;6.002;2023-02-04T06:30:13;43.92;;;6.90;;
54517;SDS011;40423;53.176;6.002;2023-02-04T06:32:40;43.35;;;7.20;;
54517;SDS011;40423;53.176;6.002;2023-02-04T06:35:05;43.95;;;6.93;;
54517;SDS011;40423;53.176;6.002;2023-02-04T06:37:32;44.28;;;7.28;;
54517;SDS011;40423;53.176;6.002;2023-02-04T06:39:58;32.33;;;5.97;;
54517;SDS011;40423;53.176;6.002;2023-02-04T06:42:24;40.75;;;6.13;;
54517;SDS011;40423;53.176;6.002;2023-02-04T06:44:50;33.50;;;6.07;;
54517;SDS011;40423;53.176;6.002;2023-02-04T06:47:16;39.72;;;6.30;;
54517;SDS011;40423;53.176;6.002;2023-02-04T06:49:42;35.22;;;5.57;;
54517;SDS011;40423;53.176;6.002;2023-02-04T06:52:10;34.03;;;6.07;;
54517;SDS011;40423;53.176;6.002;2023-02-04T06:54:36;37.25;;;5.80;;
54517;SDS011;40423;53.176;6.002;2023-02-04T06:57:02;28.42;;;6.30;;
54517;SDS011;40423;53.176;6.002;2023-02-04T06:59:35;31.67;;;5.93;;
54517;SDS011;40423;53.176;6.002;2023-02-04T07:02:02;34.22;;;6.00;;
54517;SDS011;40423;53.176;6.002;2023-02-04T07:04:29;36.33;;;6.57;;
54517;SDS011;40423;53.176;6.002;2023-02-04T07:06:55;37.13;;;6.53;;
54517;SDS011;40423;53.176;6.002;2023-02-04T07:09:23;30.00;;;5.60;;
54517;SDS011;40423;53.176;6.002;2023-02-04T07:11:49;37.15;;;6.53;;
54517;SDS011;40423;53.176;6.002;2023-02-04T07:14:15;39.65;;;7.40;;
54517;SDS011;40423;53.176;6.002;2023-02-04T07:16:41;36.67;;;6.00;;
54517;SDS011;40423;53.176;6.002;2023-02-04T07:19:06;32.50;;;5.32;;
54517;SDS011;40423;53.176;6.002;2023-02-04T07:21:32;36.53;;;7.18;;
54517;SDS011;40423;53.176;6.002;2023-02-04T07:23:58;39.65;;;6.32;;
54517;SDS011;40423;53.176;6.002;2023-02-04T07:26:27;40.10;;;6.47;;
54517;SDS011;40423;53.176;6.002;2023-02-04T07:28:53;31.42;;;5.28;;
54517;SDS011;40423;53.176;6.002;2023-02-04T07:31:18;27.33;;;5.25;;
54517;SDS011;40423;53.176;6.002;2023-02-04T07:33:44;41.03;;;6.63;;
54517;SDS011;40423;53.176;6.002;2023-02-04T07:36:10;40.85;;;6.85;;
54517;SDS011;40423;53.176;6.002;2023-02-04T07:38:36;32.97;;;6.22;;
54517;SDS011;40423;53.176;6.002;2023-02-04T07:41:01;34.00;;;5.93;;
54517;SDS011;40423;53.176;6.002;2023-02-04T07:43:27;38.63;;;5.45;;
54517;SDS011;40423;53.176;6.002;2023-02-04T07:45:53;29.75;;;4.80;;
54517;SDS011;40423;53.176;6.002;2023-02-04T07:48:19;28.42;;;5.40;;
54517;SDS011;40423;53.176;6.002;2023-02-04T07:50:44;39.75;;;6.55;;
54517;SDS011;40423;53.176;6.002;2023-02-04T07:53:10;31.38;;;5.78;;
54517;SDS011;40423;53.176;6.002;2023-02-04T07:55:36;30.38;;;5.68;;
54517;SDS011;40423;53.176;6.002;2023-02-04T07:58:04;28.15;;;6.15;;
54517;SDS011;40423;53.176;6.002;2023-02-04T08:00:30;25.95;;;4.70;;
54517;SDS011;40423;53.176;6.002;2023-02-04T08:02:59;18.33;;;5.15;;
54517;SDS011;40423;53.176;6.002;2023-02-04T08:05:25;22.48;;;4.75;;
54517;SDS011;40423;53.176;6.002;2023-02-04T08:07:50;23.83;;;4.60;;
54517;SDS011;40423;53.176;6.002;2023-02-04T08:10:16;19.33;;;4.97;;
54517;SDS011;40423;53.176;6.002;2023-02-04T08:12:42;25.15;;;5.57;;
54517;SDS011;40423;53.176;6.002;2023-02-04T08:15:10;23.63;;;4.47;;
54517;SDS011;40423;53.176;6.002;2023-02-04T08:17:36;19.35;;;4.35;;
54517;SDS011;40423;53.176;6.002;2023-02-04T08:20:02;27.30;;;5.72;;
54517;SDS011;40423;53.176;6.002;2023-02-04T08:22:28;30.25;;;5.22;;
54517;SDS011;40423;53.176;6.002;2023-02-04T08:24:57;20.92;;;3.92;;
54517;SDS011;40423;53.176;6.002;2023-02-04T08:27:23;23.23;;;4.05;;
54517;SDS011;40423;53.176;6.002;2023-02-04T08:29:49;33.10;;;10.25;;
54517;SDS011;40423;53.176;6.002;2023-02-04T08:32:15;47.67;;;17.52;;
54517;SDS011;40423;53.176;6.002;2023-02-04T08:34:43;30.10;;;12.05;;
54517;SDS011;40423;53.176;6.002;2023-02-04T08:37:09;32.97;;;9.13;;
54517;SDS011;40423;53.176;6.002;2023-02-04T08:39:34;31.45;;;6.85;;
54517;SDS011;40423;53.176;6.002;2023-02-04T08:42:00;19.80;;;5.40;;
54517;SDS011;40423;53.176;6.002;2023-02-04T08:44:26;27.90;;;7.13;;
54517;SDS011;40423;53.176;6.002;2023-02-04T08:46:54;21.73;;;5.90;;
54517;SDS011;40423;53.176;6.002;2023-02-04T08:49:20;29.70;;;5.85;;
54517;SDS011;40423;53.176;6.002;2023-02-04T08:51:45;23.13;;;5.22;;
54517;SDS011;40423;53.176;6.002;2023-02-04T08:54:11;26.00;;;4.82;;
54517;SDS011;40423;53.176;6.002;2023-02-04T08:56:37;18.90;;;5.40;;
54517;SDS011;40423;53.176;6.002;2023-02-04T08:59:03;27.77;;;5.07;;
54517;SDS011;40423;53.176;6.002;2023-02-04T09:01:28;23.50;;;4.45;;
54517;SDS011;40423;53.176;6.002;2023-02-04T09:03:54;22.85;;;4.85;;
54517;SDS011;40423;53.176;6.002;2023-02-04T09:06:20;20.75;;;4.43;;
54517;SDS011;40423;53.176;6.002;2023-02-04T09:08:45;19.10;;;4.18;;
54517;SDS011;40423;53.176;6.002;2023-02-04T09:11:11;23.90;;;4.72;;
54517;SDS011;40423;53.176;6.002;2023-02-04T09:13:37;18.60;;;3.53;;
54517;SDS011;40423;53.176;6.002;2023-02-04T09:16:03;24.98;;;5.40;;
54517;SDS011;40423;53.176;6.002;2023-02-04T09:18:29;27.10;;;5.55;;
54517;SDS011;40423;53.176;6.002;2023-02-04T09:20:56;24.42;;;4.38;;
54517;SDS011;40423;53.176;6.002;2023-02-04T09:23:22;24.38;;;4.03;;
54517;SDS011;40423;53.176;6.002;2023-02-04T09:25:51;19.13;;;4.32;;
54517;SDS011;40423;53.176;6.002;2023-02-04T09:28:17;27.40;;;5.97;;
54517;SDS011;40423;53.176;6.002;2023-02-04T09:30:44;16.17;;;3.38;;
54517;SDS011;40423;53.176;6.002;2023-02-04T09:33:10;26.08;;;3.90;;
54517;SDS011;40423;53.176;6.002;2023-02-04T09:35:37;25.35;;;3.92;;
54517;SDS011;40423;53.176;6.002;2023-02-04T09:38:04;21.85;;;4.32;;
54517;SDS011;40423;53.176;6.002;2023-02-04T09:40:31;24.80;;;4.57;;
54517;SDS011;40423;53.176;6.002;2023-02-04T09:43:01;22.33;;;4.25;;
54517;SDS011;40423;53.176;6.002;2023-02-04T09:45:31;10.27;;;2.67;;
54517;SDS011;40423;53.176;6.002;2023-02-04T09:48:00;22.23;;;3.95;;
54517;SDS011;40423;53.176;6.002;2023-02-04T09:50:28;16.10;;;4.25;;
54517;SDS011;40423;53.176;6.002;2023-02-04T09:52:56;25.83;;;4.82;;
54517;SDS011;40423;53.176;6.002;2023-02-04T09:55:36;18.02;;;3.42;;
54517;SDS011;40423;53.176;6.002;2023-02-04T09:58:10;21.42;;;4.50;;
54517;SDS011;40423;53.176;6.002;2023-02-04T10:00:41;20.25;;;4.55;;
54517;SDS011;40423;53.176;6.002;2023-02-04T10:03:18;20.58;;;4.30;;
54517;SDS011;40423;53.176;6.002;2023-02-04T10:05:47;16.20;;;3.25;;
54517;SDS011;40423;53.176;6.002;2023-02-04T10:08:15;34.58;;;6.38;;
54517;SDS011;40423;53.176;6.002;2023-02-04T10:10:44;29.88;;;10.60;;
54517;SDS011;40423;53.176;6.002;2023-02-04T10:13:13;24.13;;;5.88;;
54517;SDS011;40423;53.176;6.002;2023-02-04T10:15:42;17.80;;;3.95;;
54517;SDS011;40423;53.176;6.002;2023-02-04T10:18:10;16.45;;;3.92;;
54517;SDS011;40423;53.176;6.002;2023-02-04T10:20:39;15.57;;;2.97;;
54517;SDS011;40423;53.176;6.002;2023-02-04T10:23:05;18.70;;;3.67;;
54517;SDS011;40423;53.176;6.002;2023-02-04T10:25:34;19.40;;;3.00;;
54517;SDS011;40423;53.176;6.002;2023-02-04T10:28:00;12.18;;;2.78;;
54517;SDS011;40423;53.176;6.002;2023-02-04T10:30:39;15.20;;;3.25;;
54517;SDS011;40423;53.176;6.002;2023-02-04T10:33:13;12.95;;;2.92;;
54517;SDS011;40423;53.176;6.002;2023-02-04T10:35:51;17.88;;;3.08;;
54517;SDS011;40423;53.176;6.002;2023-02-04T10:38:19;20.70;;;3.22;;
54517;SDS011;40423;53.176;6.002;2023-02-04T10:40:59;15.90;;;3.55;;
54517;SDS011;40423;53.176;6.002;2023-02-04T10:43:26;14.68;;;3.00;;
54517;SDS011;40423;53.176;6.002;2023-02-04T10:45:56;21.42;;;5.50;;
54517;SDS011;40423;53.176;6.002;2023-02-04T10:48:26;21.50;;;3.42;;
54517;SDS011;40423;53.176;6.002;2023-02-04T10:50:54;20.70;;;2.95;;
54517;SDS011;40423;53.176;6.002;2023-02-04T10:53:24;13.23;;;2.63;;
54517;SDS011;40423;53.176;6.002;2023-02-04T10:56:19;12.48;;;2.90;;
54517;SDS011;40423;53.176;6.002;2023-02-04T10:58:46;13.15;;;2.90;;
54517;SDS011;40423;53.176;6.002;2023-02-04T11:01:13;15.43;;;3.53;;
54517;SDS011;40423;53.176;6.002;2023-02-04T11:03:41;18.30;;;2.78;;
54517;SDS011;40423;53.176;6.002;2023-02-04T11:06:16;13.27;;;2.40;;
54517;SDS011;40423;53.176;6.002;2023-02-04T11:08:46;15.18;;;2.67;;
54517;SDS011;40423;53.176;6.002;2023-02-04T11:19:02;13.98;;;3.05;;
54517;SDS011;40423;53.176;6.002;2023-02-04T11:24:05;17.27;;;3.20;;
54517;SDS011;40423;53.176;6.002;2023-02-04T11:26:47;12.98;;;2.45;;
54517;SDS011;40423;53.176;6.002;2023-02-04T11:29:29;14.15;;;2.53;;
54517;SDS011;40423;53.176;6.002;2023-02-04T11:32:24;12.60;;;3.93;;
54517;SDS011;40423;53.176;6.002;2023-02-04T11:37:38;16.00;;;2.97;;
54517;SDS011;40423;53.176;6.002;2023-02-04T11:42:55;15.25;;;3.28;;
54517;SDS011;40423;53.176;6.002;2023-02-04T11:45:32;17.60;;;5.55;;
54517;SDS011;40423;53.176;6.002;2023-02-04T11:48:03;14.68;;;2.90;;
54517;SDS011;40423;53.176;6.002;2023-02-04T11:50:54;16.58;;;3.05;;
54517;SDS011;40423;53.176;6.002;2023-02-04T11:53:31;22.40;;;4.65;;
54517;SDS011;40423;53.176;6.002;2023-02-04T11:55:58;12.05;;;2.60;;
54517;SDS011;40423;53.176;6.002;2023-02-04T11:58:28;18.80;;;3.60;;
54517;SDS011;40423;53.176;6.002;2023-02-04T12:00:56;15.45;;;2.90;;
54517;SDS011;40423;53.176;6.002;2023-02-04T12:05:50;16.80;;;7.55;;
54517;SDS011;40423;53.176;6.002;2023-02-04T12:10:58;18.92;;;7.35;;
54517;SDS011;40423;53.176;6.002;2023-02-04T12:13:31;16.10;;;2.97;;
54517;SDS011;40423;53.176;6.002;2023-02-04T12:18:27;18.20;;;4.07;;
54517;SDS011;40423;53.176;6.002;2023-02-04T12:20:56;13.25;;;3.20;;
54517;SDS011;40423;53.176;6.002;2023-02-04T12:23:24;11.68;;;5.05;;
54517;SDS011;40423;53.176;6.002;2023-02-04T12:25:50;12.25;;;2.28;;
54517;SDS011;40423;53.176;6.002;2023-02-04T12:28:16;16.50;;;5.07;;
54517;SDS011;40423;53.176;6.002;2023-02-04T12:30:42;15.35;;;8.00;;
54517;SDS011;40423;53.176;6.002;2023-02-04T12:33:07;11.63;;;3.95;;
54517;SDS011;40423;53.176;6.002;2023-02-04T12:35:34;14.38;;;3.03;;
54517;SDS011;40423;53.176;6.002;2023-02-04T12:38:00;14.15;;;2.40;;
54517;SDS011;40423;53.176;6.002;2023-02-04T12:40:26;14.27;;;2.65;;
54517;SDS011;40423;53.176;6.002;2023-02-04T12:43:04;13.90;;;2.38;;
54517;SDS011;40423;53.176;6.002;2023-02-04T12:45:30;10.80;;;2.90;;
54517;SDS011;40423;53.176;6.002;2023-02-04T12:47:59;9.27;;;2.20;;
54517;SDS011;40423;53.176;6.002;2023-02-04T12:50:24;11.18;;;2.25;;
54517;SDS011;40423;53.176;6.002;2023-02-04T12:52:51;13.73;;;2.97;;
54517;SDS011;40423;53.176;6.002;2023-02-04T12:55:19;12.68;;;3.47;;
54517;SDS011;40423;53.176;6.002;2023-02-04T12:57:46;12.55;;;2.65;;
54517;SDS011;40423;53.176;6.002;2023-02-04T13:00:13;16.85;;;3.38;;
54517;SDS011;40423;53.176;6.002;2023-02-04T13:02:40;14.02;;;3.22;;
54517;SDS011;40423;53.176;6.002;2023-02-04T13:05:06;9.57;;;2.60;;
54517;SDS011;40423;53.176;6.002;2023-02-04T13:07:32;11.43;;;2.67;;
54517;SDS011;40423;53.176;6.002;2023-02-04T13:10:01;12.85;;;2.30;;
54517;SDS011;40423;53.176;6.002;2023-02-04T13:12:30;12.27;;;2.60;;
54517;SDS011;40423;53.176;6.002;2023-02-04T13:14:55;9.90;;;2.65;;
54517;SDS011;40423;53.176;6.002;2023-02-04T13:17:21;16.08;;;2.65;;
54517;SDS011;40423;53.176;6.002;2023-02-04T13:19:47;16.08;;;4.43;;
54517;SDS011;40423;53.176;6.002;2023-02-04T13:22:13;10.77;;;2.38;;
54517;SDS011;40423;53.176;6.002;2023-02-04T13:24:39;13.90;;;3.17;;
54517;SDS011;40423;53.176;6.002;2023-02-04T13:27:06;18.35;;;3.03;;
54517;SDS011;40423;53.176;6.002;2023-02-04T13:29:31;16.08;;;2.97;;
54517;SDS011;40423;53.176;6.002;2023-02-04T13:31:57;12.10;;;3.03;;
54517;SDS011;40423;53.176;6.002;2023-02-04T13:34:23;13.30;;;2.78;;
54517;SDS011;40423;53.176;6.002;2023-02-04T13:36:48;17.38;;;3.08;;
54517;SDS011;40423;53.176;6.002;2023-02-04T13:39:17;13.98;;;4.05;;
54517;SDS011;40423;53.176;6.002;2023-02-04T13:41:45;28.50;;;16.58;;
54517;SDS011;40423;53.176;6.002;2023-02-04T13:44:11;23.60;;;8.25;;
54517;SDS011;40423;53.176;6.002;2023-02-04T13:46:37;32.30;;;20.95;;
54517;SDS011;40423;53.176;6.002;2023-02-04T13:49:03;16.77;;;6.20;;
54517;SDS011;40423;53.176;6.002;2023-02-04T13:51:29;12.75;;;3.10;;
54517;SDS011;40423;53.176;6.002;2023-02-04T13:53:55;19.05;;;5.10;;
54517;SDS011;40423;53.176;6.002;2023-02-04T13:56:22;28.27;;;4.97;;
54517;SDS011;40423;53.176;6.002;2023-02-04T13:58:47;9.05;;;2.33;;
54517;SDS011;40423;53.176;6.002;2023-02-04T14:01:13;14.27;;;2.47;;
54517;SDS011;40423;53.176;6.002;2023-02-04T14:03:39;15.63;;;3.00;;
54517;SDS011;40423;53.176;6.002;2023-02-04T14:06:07;21.30;;;7.18;;
54517;SDS011;40423;53.176;6.002;2023-02-04T14:08:32;15.40;;;2.67;;
54517;SDS011;40423;53.176;6.002;2023-02-04T14:10:58;10.35;;;2.80;;
54517;SDS011;40423;53.176;6.002;2023-02-04T14:13:24;15.85;;;3.10;;
54517;SDS011;40423;53.176;6.002;2023-02-04T14:15:53;15.38;;;3.13;;
54517;SDS011;40423;53.176;6.002;2023-02-04T14:18:18;12.95;;;3.08;;
54517;SDS011;40423;53.176;6.002;2023-02-04T14:20:45;29.98;;;8.88;;
54517;SDS011;40423;53.176;6.002;2023-02-04T14:23:10;40.17;;;16.65;;
54517;SDS011;40423;53.176;6.002;2023-02-04T14:25:37;23.80;;;5.72;;
54517;SDS011;40423;53.176;6.002;2023-02-04T14:28:02;11.07;;;4.35;;
54517;SDS011;40423;53.176;6.002;2023-02-04T14:30:29;15.10;;;2.80;;
54517;SDS011;40423;53.176;6.002;2023-02-04T14:32:55;24.65;;;11.10;;
54517;SDS011;40423;53.176;6.002;2023-02-04T14:35:22;15.70;;;3.42;;
54517;SDS011;40423;53.176;6.002;2023-02-04T14:37:48;12.27;;;3.80;;
54517;SDS011;40423;53.176;6.002;2023-02-04T14:40:15;19.25;;;3.08;;
54517;SDS011;40423;53.176;6.002;2023-02-04T14:42:42;18.63;;;3.22;;
54517;SDS011;40423;53.176;6.002;2023-02-04T14:45:08;12.30;;;3.22;;
54517;SDS011;40423;53.176;6.002;2023-02-04T14:47:36;24.20;;;5.15;;
54517;SDS011;40423;53.176;6.002;2023-02-04T14:50:07;15.35;;;3.28;;
54517;SDS011;40423;53.176;6.002;2023-02-04T14:52:37;14.65;;;3.20;;
54517;SDS011;40423;53.176;6.002;2023-02-04T14:55:05;18.05;;;3.08;;
54517;SDS011;40423;53.176;6.002;2023-02-04T14:57:32;16.52;;;4.13;;
54517;SDS011;40423;53.176;6.002;2023-02-04T14:59:58;13.45;;;2.40;;